createdAt,value
2019-02-25T00:01:58.741Z,19.00
2019-02-25T00:04:29.152Z,21.37
2019-02-25T00:06:59.417Z,21.63
2019-02-25T00:09:30.825Z,20.43
2019-02-25T00:12:02.298Z,23.40
2019-02-25T00:14:32.810Z,23.37
2019-02-25T00:17:04.282Z,19.40
2019-02-25T00:19:35.709Z,22.70
2019-02-25T00:22:05.987Z,22.00
2019-02-25T00:24:36.231Z,21.03
2019-02-25T00:27:06.704Z,21.17
2019-02-25T00:29:38.145Z,19.53
2019-02-25T00:32:09.680Z,21.30
2019-02-25T00:34:41.049Z,28.70
2019-02-25T00:37:12.498Z,28.27
2019-02-25T00:39:43.956Z,23.37
2019-02-25T00:42:15.083Z,26.57
2019-02-25T00:44:46.536Z,22.77
2019-02-25T00:47:17.992Z,17.07
2019-02-25T00:49:49.443Z,16.13
2019-02-25T00:52:20.884Z,17.43
2019-02-25T00:54:51.132Z,13.60
2019-02-25T00:57:23.488Z,13.43
2019-02-25T00:59:56.167Z,13.73
2019-02-25T01:02:28.536Z,12.40
2019-02-25T01:05:00.910Z,14.53
2019-02-25T01:07:32.364Z,15.37
2019-02-25T01:10:07.457Z,13.60
2019-02-25T01:12:37.725Z,14.40
2019-02-25T01:15:09.181Z,16.33
2019-02-25T01:17:40.627Z,17.87
2019-02-25T01:20:14.944Z,21.10
2019-02-25T01:22:45.368Z,16.37
2019-02-25T01:25:18.384Z,15.30
2019-02-25T01:27:49.808Z,14.97
2019-02-25T01:30:21.439Z,14.47
2019-02-25T01:32:51.804Z,15.20
2019-02-25T01:35:24.179Z,17.47
2019-02-25T01:37:55.619Z,15.23
2019-02-25T01:40:27.069Z,14.17
2019-02-25T01:42:58.209Z,15.47
2019-02-25T01:45:29.664Z,14.07
2019-02-25T01:48:01.108Z,14.40
2019-02-25T01:50:33.487Z,18.47
2019-02-25T01:53:06.010Z,23.03
2019-02-25T01:55:36.389Z,21.20
2019-02-25T01:58:07.839Z,26.10
2019-02-25T02:00:40.520Z,24.87
2019-02-25T02:03:11.971Z,26.00
2019-02-25T02:05:43.424Z,28.47
2019-02-25T02:08:14.871Z,23.90
2019-02-25T02:10:46.328Z,15.93
2019-02-25T02:13:18.731Z,14.10
2019-02-25T02:15:50.149Z,14.87
2019-02-25T02:18:22.825Z,13.77
2019-02-25T02:20:56.282Z,12.07
2019-02-25T02:23:26.650Z,12.70
2019-02-25T02:25:58.101Z,12.33
2019-02-25T02:28:29.552Z,10.80
2019-02-25T02:31:01.008Z,12.90
2019-02-25T02:33:33.381Z,13.17
2019-02-25T02:36:04.834Z,11.77
2019-02-25T02:38:37.523Z,11.73
2019-02-25T02:41:08.959Z,12.77
2019-02-25T02:43:41.655Z,13.87
2019-02-25T02:46:25.626Z,12.77
2019-02-25T02:48:59.417Z,12.70
2019-02-25T02:51:29.816Z,11.37
2019-02-25T02:54:01.279Z,10.87
2019-02-25T02:56:33.042Z,11.87
2019-02-25T02:59:03.295Z,12.17
2019-02-25T03:01:34.700Z,11.53
2019-02-25T03:04:04.941Z,11.97
2019-02-25T03:06:36.392Z,13.13
2019-02-25T03:09:09.478Z,13.27
2019-02-25T03:11:40.199Z,13.27
2019-02-25T03:14:11.660Z,14.63
2019-02-25T03:16:43.103Z,11.47
2019-02-25T03:19:15.779Z,9.47
2019-02-25T03:21:47.290Z,10.20
2019-02-25T03:24:18.688Z,9.63
2019-02-25T03:26:51.049Z,10.03
2019-02-25T03:29:21.295Z,10.67
2019-02-25T03:31:52.737Z,9.80
2019-02-25T03:34:23.268Z,10.13
2019-02-25T03:36:54.711Z,16.07
2019-02-25T03:39:26.169Z,12.57
2019-02-25T03:41:57.613Z,10.87
2019-02-25T03:44:29.075Z,10.67
2019-02-25T03:47:00.520Z,12.23
2019-02-25T03:49:31.976Z,12.83
2019-02-25T03:52:03.428Z,12.53
2019-02-25T03:54:34.881Z,20.30
2019-02-25T03:57:06.323Z,14.70
2019-02-25T03:59:37.850Z,13.17
2019-02-25T04:02:10.766Z,12.80
2019-02-25T04:04:42.220Z,11.43
2019-02-25T04:07:13.665Z,12.83
2019-02-25T04:09:45.119Z,11.00
2019-02-25T04:12:16.569Z,12.27
2019-02-25T04:14:48.030Z,14.50
2019-02-25T04:17:20.389Z,14.63
2019-02-25T04:19:52.767Z,14.73
2019-02-25T04:22:24.832Z,13.53
2019-02-25T04:24:56.286Z,13.30
2019-02-25T04:27:27.733Z,14.00
2019-02-25T04:29:57.980Z,13.43
2019-02-25T04:32:29.405Z,14.43
2019-02-25T04:35:00.862Z,17.63
2019-02-25T04:37:31.095Z,16.97
2019-02-25T04:40:01.925Z,18.20
2019-02-25T04:42:36.137Z,21.47
2019-02-25T04:45:16.592Z,19.73
2019-02-25T04:47:47.022Z,20.40
2019-02-25T04:50:19.395Z,22.60
2019-02-25T04:52:50.856Z,23.03
2019-02-25T04:55:22.320Z,18.47
2019-02-25T04:57:53.755Z,17.93
2019-02-25T05:00:26.545Z,22.93
2019-02-25T05:02:56.965Z,20.30
2019-02-25T05:05:28.425Z,20.63
2019-02-25T05:07:59.873Z,23.67
2019-02-25T05:10:31.334Z,21.47
2019-02-25T05:13:06.175Z,20.10
2019-02-25T05:15:40.277Z,22.47
2019-02-25T05:18:10.596Z,19.70
2019-02-25T05:20:40.860Z,19.00
2019-02-25T05:23:12.260Z,17.50
2019-02-25T05:25:43.711Z,18.27
2019-02-25T05:28:15.162Z,16.10
2019-02-25T05:30:46.674Z,17.57
2019-02-25T05:33:17.152Z,17.90
2019-02-25T05:35:48.593Z,19.03
2019-02-25T05:38:18.840Z,21.30
2019-02-25T05:40:50.271Z,23.07
2019-02-25T05:43:21.716Z,20.83
2019-02-25T05:45:53.171Z,21.10
2019-02-25T05:48:24.640Z,24.07
2019-02-25T05:50:56.077Z,23.37
2019-02-25T05:53:27.526Z,26.20
2019-02-25T05:55:58.978Z,24.60
2019-02-25T05:58:31.348Z,22.73
2019-02-25T06:01:02.815Z,20.73
2019-02-25T06:03:34.255Z,18.73
2019-02-25T06:06:05.701Z,17.73
2019-02-25T06:08:38.385Z,16.03
2019-02-25T06:11:09.837Z,14.37
2019-02-25T06:13:41.289Z,14.07
2019-02-25T06:16:12.737Z,13.43
2019-02-25T06:18:44.192Z,12.80
2019-02-25T06:21:15.649Z,14.73
2019-02-25T06:23:47.237Z,11.30
2019-02-25T06:26:19.272Z,12.67
2019-02-25T06:28:51.473Z,18.70
2019-02-25T06:31:24.827Z,16.03
2019-02-25T06:33:55.093Z,29.37
2019-02-25T06:36:27.431Z,48.90
2019-02-25T06:38:58.803Z,44.90
2019-02-25T06:41:30.224Z,48.17
2019-02-25T06:44:00.541Z,39.97
2019-02-25T06:46:32.959Z,30.67
2019-02-25T06:49:04.384Z,30.67
2019-02-25T06:51:35.985Z,33.10
2019-02-25T06:54:06.370Z,32.53
2019-02-25T06:56:36.739Z,31.43
2019-02-25T06:59:08.032Z,30.97
2019-02-25T07:01:38.293Z,30.53
2019-02-25T07:04:17.395Z,28.73
2019-02-25T07:06:50.199Z,28.57
2019-02-25T07:09:31.832Z,27.00
2019-02-25T07:12:06.502Z,26.33
2019-02-25T07:14:38.383Z,22.53
2019-02-25T07:17:29.406Z,20.10
2019-02-25T07:20:10.394Z,20.60
2019-02-25T07:22:50.219Z,24.83
2019-02-25T07:25:22.244Z,27.50
2019-02-25T07:28:10.463Z,24.67
2019-02-25T07:30:58.759Z,19.83
2019-02-25T07:33:44.395Z,19.90
2019-02-25T07:36:18.714Z,19.05
2019-02-25T07:38:59.764Z,19.12
2019-02-25T07:41:34.749Z,21.30
2019-02-25T07:44:07.911Z,19.62
2019-02-25T07:46:45.613Z,19.87
2019-02-25T07:49:23.655Z,17.32
2019-02-25T07:52:02.063Z,19.23
2019-02-25T07:54:53.988Z,20.88
2019-02-25T07:57:28.747Z,21.10
2019-02-25T08:00:03.685Z,23.52
2019-02-25T08:02:43.102Z,21.95
2019-02-25T08:05:17.742Z,21.65
2019-02-25T08:08:06.141Z,21.73
2019-02-25T08:10:44.115Z,21.57
2019-02-25T08:13:16.005Z,20.50
2019-02-25T08:15:56.744Z,24.55
2019-02-25T08:18:37.530Z,20.68
2019-02-25T08:21:21.259Z,20.77
2019-02-25T08:24:05.054Z,20.50
2019-02-25T08:26:53.105Z,21.25
2019-02-25T08:29:37.004Z,19.70
2019-02-25T08:32:20.797Z,24.57
2019-02-25T08:35:07.691Z,22.35
2019-02-25T08:37:45.704Z,19.07
2019-02-25T08:40:38.557Z,18.15
2019-02-25T08:43:29.017Z,18.77
2019-02-25T08:46:17.016Z,18.07
2019-02-25T08:49:03.114Z,20.43
2019-02-25T08:51:34.830Z,21.93
2019-02-25T08:54:08.455Z,22.75
2019-02-25T08:56:39.877Z,16.95
2019-02-25T08:59:15.530Z,21.20
2019-02-25T09:01:49.855Z,17.55
2019-02-25T09:04:25.127Z,21.27
2019-02-25T09:06:57.116Z,19.42
2019-02-25T09:09:28.504Z,19.20
2019-02-25T09:11:58.753Z,27.05
2019-02-25T09:14:30.174Z,22.25
2019-02-25T09:17:00.418Z,19.12
2019-02-25T09:19:33.480Z,20.20
2019-02-25T09:22:03.738Z,22.20
2019-02-25T09:24:40.857Z,23.07
2019-02-25T09:27:14.064Z,22.37
2019-02-25T09:29:47.181Z,19.98
2019-02-25T09:32:19.033Z,22.93
2019-02-25T09:34:49.474Z,23.65
2019-02-25T09:37:26.058Z,21.87
2019-02-25T09:39:58.259Z,19.12
2019-02-25T09:42:31.773Z,22.77
2019-02-25T09:45:09.529Z,20.30
2019-02-25T09:47:39.953Z,20.30
2019-02-25T09:50:14.077Z,20.77
2019-02-25T09:52:44.372Z,22.77
2019-02-25T09:55:18.432Z,20.32
2019-02-25T09:57:48.814Z,17.75
2019-02-25T10:00:24.092Z,20.80
2019-02-25T10:02:54.484Z,23.02
2019-02-25T10:05:24.714Z,18.12
2019-02-25T10:07:57.068Z,20.05
2019-02-25T10:10:32.330Z,21.42
2019-02-25T10:13:05.815Z,22.35
2019-02-25T10:15:36.062Z,18.67
2019-02-25T10:18:10.162Z,19.95
2019-02-25T10:20:40.494Z,19.90
2019-02-25T10:23:12.845Z,20.75
2019-02-25T10:25:47.164Z,21.73
2019-02-25T10:28:21.581Z,20.72
2019-02-25T10:30:53.472Z,20.08
2019-02-25T10:33:23.717Z,19.62
2019-02-25T10:35:55.562Z,15.43
2019-02-25T10:38:25.849Z,20.08
2019-02-25T10:40:56.098Z,21.55
2019-02-25T10:43:29.538Z,9.93
2019-02-25T10:46:01.757Z,20.68
2019-02-25T10:48:34.123Z,18.40
2019-02-25T10:51:09.327Z,19.12
2019-02-25T10:53:39.608Z,18.67
2019-02-25T10:56:14.527Z,17.37
2019-02-25T10:58:45.250Z,15.15
2019-02-25T11:01:19.727Z,17.00
2019-02-25T11:03:50.040Z,20.90
2019-02-25T11:06:21.023Z,15.18
2019-02-25T11:08:54.028Z,14.85
2019-02-25T11:11:28.917Z,18.07
2019-02-25T11:14:00.871Z,14.93
2019-02-25T11:16:32.754Z,14.95
2019-02-25T11:19:03.004Z,15.80
2019-02-25T11:21:35.200Z,14.03
2019-02-25T11:24:05.206Z,14.20
2019-02-25T11:26:35.492Z,13.00
2019-02-25T11:29:11.718Z,15.63
2019-02-25T11:31:45.726Z,13.98
2019-02-25T11:34:23.078Z,14.03
2019-02-25T11:36:57.197Z,14.23
2019-02-25T11:39:32.686Z,14.03
2019-02-25T11:42:05.088Z,19.82
2019-02-25T11:44:35.228Z,12.10
2019-02-25T11:47:07.105Z,20.50
2019-02-25T11:49:37.517Z,12.85
2019-02-25T11:52:08.445Z,10.63
2019-02-25T11:54:38.882Z,10.35
2019-02-25T11:57:09.133Z,10.08
2019-02-25T11:59:40.563Z,14.98
2019-02-25T12:02:10.804Z,9.60
2019-02-25T12:04:42.252Z,8.38
2019-02-25T12:07:12.589Z,10.25
2019-02-25T12:09:44.644Z,8.88
2019-02-25T12:12:17.878Z,9.55
2019-02-25T12:14:51.737Z,11.38
2019-02-25T12:17:22.024Z,9.35
2019-02-25T12:19:54.009Z,13.78
2019-02-25T12:22:24.243Z,9.20
2019-02-25T12:24:54.496Z,11.03
2019-02-25T12:27:25.931Z,13.85
2019-02-25T12:29:57.365Z,11.30
2019-02-25T12:32:28.815Z,10.35
2019-02-25T12:34:59.066Z,12.00
2019-02-25T12:37:29.322Z,40.50
2019-02-25T12:39:59.569Z,9.60
2019-02-25T12:42:29.817Z,19.92
2019-02-25T12:45:00.114Z,9.80
2019-02-25T12:47:33.507Z,15.20
2019-02-25T12:50:06.150Z,10.38
2019-02-25T12:52:36.436Z,12.65
2019-02-25T12:55:09.824Z,10.82
2019-02-25T12:57:40.070Z,8.45
2019-02-25T13:00:17.927Z,10.25
2019-02-25T13:02:48.277Z,8.15
2019-02-25T13:05:20.561Z,10.35
2019-02-25T13:07:50.814Z,7.40
2019-02-25T13:10:21.055Z,6.08
2019-02-25T13:12:51.774Z,6.95
2019-02-25T13:15:24.561Z,9.28
2019-02-25T13:17:54.820Z,9.90
2019-02-25T13:20:25.067Z,6.87
2019-02-25T13:22:55.315Z,7.62
2019-02-25T13:25:28.200Z,8.80
2019-02-25T13:27:59.440Z,7.05
2019-02-25T13:30:30.385Z,7.70
2019-02-25T13:33:01.807Z,8.03
2019-02-25T13:35:32.055Z,8.05
2019-02-25T13:38:02.300Z,7.10
2019-02-25T13:40:32.826Z,5.17
2019-02-25T13:43:03.076Z,6.20
2019-02-25T13:45:33.320Z,5.65
2019-02-25T13:48:05.122Z,6.62
2019-02-25T13:50:35.378Z,6.53
2019-02-25T13:53:06.658Z,7.65
2019-02-25T13:55:37.182Z,8.03
2019-02-25T13:58:07.442Z,7.20
2019-02-25T14:00:37.715Z,8.43
2019-02-25T14:03:08.664Z,13.40
2019-02-25T14:05:38.915Z,6.60
2019-02-25T14:08:10.926Z,9.00
2019-02-25T14:10:42.533Z,28.52
2019-02-25T14:13:13.574Z,18.12
2019-02-25T14:15:45.466Z,33.98
2019-02-25T14:18:16.302Z,12.28
2019-02-25T14:20:46.554Z,46.42
2019-02-25T14:23:18.451Z,55.70
2019-02-25T14:25:48.998Z,37.25
2019-02-25T14:28:19.313Z,20.10
2019-02-25T14:30:51.606Z,59.65
2019-02-25T14:33:23.589Z,55.65
2019-02-25T14:35:53.981Z,21.90
2019-02-25T14:38:27.130Z,9.45
2019-02-25T14:40:57.723Z,19.70
2019-02-25T14:43:29.184Z,106.22
2019-02-25T14:46:01.452Z,73.92
2019-02-25T14:48:32.851Z,182.35
2019-02-25T14:51:04.692Z,131.50
2019-02-25T14:53:34.998Z,177.27
2019-02-25T14:56:07.912Z,82.57
2019-02-25T14:58:40.202Z,24.12
2019-02-25T15:01:10.340Z,203.55
2019-02-25T15:03:42.712Z,255.20
2019-02-25T15:06:21.276Z,187.32
2019-02-25T15:08:52.491Z,173.02
2019-02-25T15:11:22.875Z,30.60
2019-02-25T15:13:54.331Z,12.90
2019-02-25T15:16:25.783Z,11.05
2019-02-25T15:18:56.032Z,8.73
2019-02-25T15:21:26.309Z,12.23
2019-02-25T15:24:00.037Z,9.13
2019-02-25T15:26:30.311Z,6.12
2019-02-25T15:29:02.913Z,6.53
2019-02-25T15:31:34.700Z,7.15
2019-02-25T15:34:05.036Z,4.80
2019-02-25T15:36:36.472Z,10.80
2019-02-25T15:39:10.896Z,13.72
2019-02-25T15:41:44.090Z,29.52
2019-02-25T15:44:15.251Z,11.30
2019-02-25T15:46:45.542Z,11.78
2019-02-25T15:49:17.244Z,6.90
2019-02-25T15:51:49.820Z,7.95
2019-02-25T15:54:22.904Z,11.03
2019-02-25T15:56:54.614Z,6.03
2019-02-25T15:59:32.038Z,7.35
2019-02-25T16:02:03.491Z,8.18
2019-02-25T16:04:38.103Z,8.03
2019-02-25T16:07:10.523Z,8.88
2019-02-25T16:09:40.998Z,7.83
2019-02-25T16:12:11.249Z,9.15
2019-02-25T16:14:42.243Z,10.32
2019-02-25T16:17:13.718Z,11.25
2019-02-25T16:19:47.815Z,11.43
2019-02-25T16:22:19.992Z,14.30
2019-02-25T16:24:50.421Z,13.15
2019-02-25T16:27:23.246Z,21.82
2019-02-25T16:29:58.064Z,13.62
2019-02-25T16:32:31.841Z,11.50
2019-02-25T16:35:03.167Z,11.73
2019-02-25T16:37:35.525Z,12.10
2019-02-25T16:40:17.616Z,13.25
2019-02-25T16:42:48.316Z,18.50
2019-02-25T16:45:21.412Z,20.12
2019-02-25T16:47:51.834Z,17.82
2019-02-25T16:50:24.751Z,18.25
2019-02-25T16:52:56.907Z,19.05
2019-02-25T16:55:29.308Z,23.98
2019-02-25T16:58:03.597Z,20.97
2019-02-25T17:00:35.460Z,20.48
2019-02-25T17:03:06.660Z,17.48
2019-02-25T17:05:40.314Z,19.00
2019-02-25T17:08:12.891Z,27.10
2019-02-25T17:10:43.194Z,17.45
2019-02-25T17:13:15.437Z,18.48
2019-02-25T17:15:47.652Z,16.02
2019-02-25T17:18:20.612Z,21.12
2019-02-25T17:20:52.073Z,15.48
2019-02-25T17:23:27.195Z,15.83
2019-02-25T17:25:56.514Z,16.15
2019-02-25T17:28:27.448Z,16.25
2019-02-25T17:30:57.884Z,21.62
2019-02-25T17:33:28.762Z,19.85
2019-02-25T17:36:00.237Z,19.52
2019-02-25T17:38:30.668Z,16.40
2019-02-25T17:41:03.308Z,20.05
2019-02-25T17:43:34.247Z,24.63
2019-02-25T17:46:06.974Z,26.52
2019-02-25T17:48:39.209Z,24.07
2019-02-25T17:51:10.400Z,26.37
2019-02-25T17:53:41.532Z,22.20
2019-02-25T17:56:13.924Z,22.67
2019-02-25T17:58:46.867Z,23.00
2019-02-25T18:01:19.670Z,17.27
2019-02-25T18:03:53.557Z,15.55
2019-02-25T18:06:29.604Z,16.47
2019-02-25T18:08:58.247Z,23.30
2019-02-25T18:11:30.702Z,21.97
2019-02-25T18:14:01.127Z,19.12
2019-02-25T18:16:33.191Z,24.07
2019-02-25T18:19:03.421Z,29.25
2019-02-25T18:21:34.864Z,26.42
2019-02-25T18:24:05.117Z,21.97
2019-02-25T18:26:37.772Z,26.47
2019-02-25T18:29:09.424Z,27.42
2019-02-25T18:31:44.972Z,25.90
2019-02-25T18:34:16.439Z,24.90
2019-02-25T18:36:48.945Z,25.88
2019-02-25T18:39:23.135Z,22.07
2019-02-25T18:41:55.556Z,25.10
2019-02-25T18:44:29.105Z,27.20
2019-02-25T18:46:59.990Z,28.98
2019-02-25T18:49:32.518Z,25.00
2019-02-25T18:52:02.437Z,26.70
2019-02-25T18:54:39.656Z,33.93
2019-02-25T18:57:11.812Z,28.23
2019-02-25T18:59:43.238Z,31.20
2019-02-25T19:02:16.651Z,33.17
2019-02-25T19:04:48.140Z,33.17
2019-02-25T19:07:20.225Z,24.43
2019-02-25T19:09:51.675Z,25.83
2019-02-25T19:12:23.162Z,20.43
2019-02-25T19:14:55.740Z,25.70
2019-02-25T19:17:27.519Z,15.50
2019-02-25T19:19:58.574Z,18.57
2019-02-25T19:22:30.608Z,21.60
2019-02-25T19:25:00.909Z,18.43
2019-02-25T19:27:34.110Z,19.70
2019-02-25T19:30:10.003Z,18.63
2019-02-25T19:32:41.235Z,21.12
2019-02-25T19:35:12.101Z,19.87
2019-02-25T19:37:44.425Z,17.93
2019-02-25T19:40:26.691Z,17.73
2019-02-25T19:42:58.816Z,18.73
2019-02-25T19:45:29.337Z,18.07
2019-02-25T19:48:02.487Z,20.40
2019-02-25T19:50:34.807Z,24.27
2019-02-25T19:53:07.640Z,23.10
2019-02-25T19:55:40.461Z,17.93
2019-02-25T19:58:11.878Z,18.23
2019-02-25T20:00:44.970Z,19.63
2019-02-25T20:03:15.256Z,15.90
2019-02-25T20:05:51.979Z,15.93
2019-02-25T20:08:23.253Z,17.10
2019-02-25T20:10:56.248Z,19.57
2019-02-25T20:13:28.917Z,17.33
2019-02-25T20:16:07.858Z,20.00
2019-02-25T20:18:37.722Z,16.53
2019-02-25T20:21:09.335Z,16.45
2019-02-25T20:23:40.804Z,17.37
2019-02-25T20:26:13.487Z,14.17
2019-02-25T20:28:46.215Z,12.40
2019-02-25T20:31:16.818Z,13.80
2019-02-25T20:33:47.214Z,10.67
2019-02-25T20:36:21.362Z,11.68
2019-02-25T20:38:49.493Z,11.93
2019-02-25T20:41:26.228Z,11.80
2019-02-25T20:44:00.715Z,9.10
2019-02-25T20:46:35.316Z,9.67
2019-02-25T20:49:07.259Z,10.87
2019-02-25T20:51:40.103Z,9.30
2019-02-25T20:54:17.769Z,9.00
2019-02-25T20:56:55.508Z,11.55
2019-02-25T20:59:32.325Z,11.40
2019-02-25T21:02:04.849Z,9.45
2019-02-25T21:04:43.348Z,17.40
2019-02-25T21:07:18.971Z,17.47
2019-02-25T21:09:52.826Z,38.17
2019-02-25T21:12:23.235Z,15.23
2019-02-25T21:14:54.678Z,13.95
2019-02-25T21:17:35.550Z,23.87
2019-02-25T21:20:14.615Z,19.90
2019-02-25T21:22:52.442Z,29.27
2019-02-25T21:25:24.439Z,14.05
2019-02-25T21:27:55.174Z,10.93
2019-02-25T21:30:24.868Z,11.43
2019-02-25T21:32:59.056Z,12.55
2019-02-25T21:35:30.125Z,11.43
2019-02-25T21:38:02.486Z,14.80
2019-02-25T21:40:32.906Z,11.45
2019-02-25T21:43:06.549Z,9.18
2019-02-25T21:45:37.328Z,8.78
2019-02-25T21:48:13.939Z,8.48
2019-02-25T21:50:45.400Z,10.05
2019-02-25T21:53:18.286Z,7.20
2019-02-25T21:55:51.092Z,17.12
2019-02-25T21:58:23.194Z,98.80
2019-02-25T22:00:53.326Z,41.23
2019-02-25T22:03:24.787Z,51.05
2019-02-25T22:05:58.751Z,19.12
2019-02-25T22:08:31.364Z,163.95
2019-02-25T22:11:12.572Z,15.78
2019-02-25T22:13:34.587Z,16.07
2019-02-25T22:16:08.045Z,8.45
2019-02-25T22:18:41.972Z,8.73
2019-02-25T22:21:14.208Z,8.30
2019-02-25T22:23:44.670Z,8.88
2019-02-25T22:26:14.927Z,8.00
2019-02-25T22:28:46.362Z,7.37
2019-02-25T22:31:18.194Z,7.55
2019-02-25T22:33:50.326Z,7.50
2019-02-25T22:36:21.761Z,5.33
2019-02-25T22:38:52.170Z,8.15
2019-02-25T22:41:25.090Z,7.05
2019-02-25T22:43:55.659Z,7.25
2019-02-25T22:46:29.791Z,7.17
2019-02-25T22:49:00.864Z,6.87
2019-02-25T22:51:33.054Z,8.70
2019-02-25T22:54:03.637Z,5.67
2019-02-25T22:56:35.392Z,7.75
2019-02-25T22:59:06.839Z,6.70
2019-02-25T23:01:38.452Z,6.20
2019-02-25T23:04:11.151Z,6.47
2019-02-25T23:06:43.917Z,5.87
2019-02-25T23:09:14.379Z,5.87
2019-02-25T23:11:48.205Z,5.28
2019-02-25T23:14:18.296Z,6.10
2019-02-25T23:16:49.747Z,6.15
2019-02-25T23:19:22.525Z,6.08
2019-02-25T23:21:52.971Z,6.42
2019-02-25T23:24:27.986Z,6.78
2019-02-25T23:26:59.515Z,7.05
2019-02-25T23:29:29.592Z,7.47
2019-02-25T23:32:02.534Z,5.67
2019-02-25T23:34:35.900Z,7.58
2019-02-25T23:37:08.356Z,6.92
2019-02-25T23:39:40.520Z,6.50
2019-02-25T23:42:13.496Z,8.15
2019-02-25T23:44:43.707Z,6.67
2019-02-25T23:47:16.099Z,7.33
2019-02-25T23:49:48.633Z,6.35
2019-02-25T23:52:19.005Z,7.83
2019-02-25T23:54:51.969Z,6.78
2019-02-25T23:57:23.937Z,7.35
2019-02-25T23:59:55.777Z,8.50
